Pierceton, IN

10:30 AM EDT on May 25, 2015 (GMT -0400)
Barbee Kuhn Point | | Change Station
CLOSE
Current Station
Personal Weather Station
Location: Pierceton, IN
Elevation: 853 ft
Nearby Weather Stations

Elev 853 ft 41.28 °N, 85.70 °W | Updated 15 seconds ago

Overcast
Overcast
74.1 °F
Feels Like 76 °F
N
14.0
Wind Variable Wind from West
Gusts 22.0 mph

Today
High -- | Low -- °F
--% Chance of Precip.
Yesterday
High -- | Low -- °F
Precip. -- in
6:16 AM 9:03 PM
Waxing Crescent, 49% visible
Pressure 29.98 in
Visibility 10.0 miles
Clouds Mostly Cloudy 2600 ft
Overcast 3300 ft
Heat Index 76 °F
Dew Point 65 °F
Humidity 73%
Rainfall 0.00 in
Snow Depth Not available.
UV 2 out of 12
Pollen 10.40 out of 12
Air Quality Not available.
Flu Activity Sporadic
METAR KASW 251415Z AUTO 21010G19KT 10SM BKN026 OVC033 23/17 A2998 RMK AO2

More Conditions Fewer Conditions

Pressure 29.98 in
Visibility 10.0 miles
Clouds Mostly Cloudy 2600 ft
Overcast 3300 ft
Heat Index 76 °F
Dew Point 65 °F
Humidity 73%
Rainfall 0.00 in
Snow Depth Not available.
UV 2 out of 12
Pollen 10.40 out of 12
Air Quality Not available.
Flu Activity Sporadic
METAR KASW 251415Z AUTO 21010G19KT 10SM BKN026 OVC033 23/17 A2998 RMK AO2

More Conditions Fewer Conditions

10-Day Weather Forecast

Almanac

Astronomy

May. 25, 2015 Rise Set
Actual Time
Civil Twilight
Nautical Twilight
Astronomical Twilight
Moon
Length of Visible Light
Length of Day
Tomorrow will be .
, % of the Moon is Illuminated

Today's Extremes

State Highs State Lows

Community

WunderPhotos

Upload Photos

1,824,024 photos uploaded!

WunderBlogs® & News

Nearby

Air Quality

  Air Quality AQ Index Pollutant
Not available.

Snow Depth

Station Depth Elevation

Earthquake Activity

City Distance Mag. Time & Date
Minimum magnitude displayed is 2.5.

Coastal Water Temperatures

Place Temperature

Stations

Nearby Weather Stations

Station Location Temp. Windchill Dew Point Humidity Wind Precip. Elev Updated Type